Terminal Aerodrome Forecast
Issued by NWS Quad Cities IA IL

Home | Current Version | Previous Version | Text Only | Print | Product List | Glossary On
Versions: 1 2 3 4 5 6 7 8 9 10 11 12 13 14 15 16 17
000
FTUS43 KDVN 020500
TAFDBQ
TAF
KDBQ 020520Z 0206/0306 14005KT P6SM SCT030 BKN050
      TEMPO 0206/0210 4SM BR BKN012 OVC030
     FM021000 09004KT 4SM BR OVC015
      TEMPO 0210/0214 2SM BR OVC009
     FM021400 10003KT 4SM BR VCTS OVC014CB PROB30 0215/0218 1SM
      -TSRA BR SCT015CB OVC020
     FM021800 15006KT 4SM -SHRA BR VCTS SCT012CB BKN025 PROB30
      0219/0301 1SM TSRA BR BKN010CB OVC020
     FM030100 31010KT P6SM OVC008
      AMD NOT SKED=

USA.gov is the U.S. government's official web portal to all federal, state and local government web resources and services.